Aeroporto :







RITROVATECI SU...

 
LOGIN :

Iscrizione | Disclaimer

   EN    FR    IT 

 









Sommario :    VFR   VFR Marginale   IFR   IFR Intensivo   IFR Molto Intensivo
Visibilità : 
Base nubi : 
>= 8 km
>= 3000ft
5 / 8 km
1000 / 3000 ft
1500m / 5 km
500 / 1000 ft
800 / 1500m
200 / 500 ft
< 800m
< 200 ft
Simboli :   Temporali  Nebbia  Neve Forte  Precipitazioni Forti  Vento > 20 kt






- Altitudine del aeroporto : 1009 ft
- Codice IATA : ORH


KORH - Worcester Regional

ULTIMO METAR :
  • 022254Z 25011KT 10SM FEW049 OVC060 02/M04 A2987 RMK AO2 SLP127 T00171044

METARs OBSOLETI :
  • 022154Z 25009KT 10SM SCT038 OVC070 02/M04 A2986 RMK AO2 SNE19 SLP122 P0000 T00171039
  • 022120Z 25010KT 9SM BKN036 BKN048 OVC060 02/M03 A2984 RMK AO2 SNE19 P0000 T00221033
  • 022054Z 28010KT 8SM -SN BKN029 OVC036 02/M03 A2984 RMK AO2 SNB29 SLP114 P0000 60000 T00221033 53010
  • 022041Z 24010KT 4SM -SN BKN029 OVC037 02/M03 A2983 RMK AO2 SNB29 P0000 T00221028

TAF KORH
Valido dal 02 a 21 ore il 03 a 18 ore UTC


022107Z 0221/0318 27010KT 6SM -SHSN BKN030
FM030100 26010KT P6SM SCT030
FM031000 25011KT P6SM SKC
FIR KZBW / America del Nord



MetMap, La meteo Aeronautica in un colpo d'occhio ! - Copyright ORBIFLY Dicembre 2007 - Disclaimer

ORBIFLY MET'MAP TEAM :

Programmazione e sviluppo : Alexandra Zaïnal
Concezione : Baudouin d'Aumeries
Aiuto per la programmazione : Marc-Olivier Méhu
Supporto tecnico e logistico : Manuel Goepfert
Aiuto per la traduzione : Arnaldo La Scala

Contatto : metmap@orbifly.com




FONTI E CREDITI :

   NOAA